createdAt,value
2023-03-15T00:00:19.150Z,4.14
2023-03-15T00:01:18.768Z,3.88
2023-03-15T00:02:16.210Z,3.89
2023-03-15T00:03:14.870Z,4.28
2023-03-15T00:04:12.879Z,4.00
2023-03-15T00:05:12.988Z,4.43
2023-03-15T00:06:10.492Z,4.10
2023-03-15T00:07:07.885Z,4.14
2023-03-15T00:08:05.341Z,3.87
2023-03-15T00:09:03.340Z,3.99
2023-03-15T00:10:00.734Z,4.08
2023-03-15T00:10:58.083Z,3.61
2023-03-15T00:11:55.443Z,3.71
2023-03-15T00:12:52.713Z,3.83
2023-03-15T00:13:50.726Z,3.74
2023-03-15T00:14:48.074Z,3.92
2023-03-15T00:15:54.117Z,4.00
2023-03-15T00:16:51.547Z,4.18
2023-03-15T00:17:48.876Z,3.82
2023-03-15T00:18:47.380Z,3.91
2023-03-15T00:19:44.754Z,4.09
2023-03-15T00:20:42.345Z,3.53
2023-03-15T00:21:40.540Z,3.46
2023-03-15T00:22:38.576Z,3.79
2023-03-15T00:23:35.963Z,3.60
2023-03-15T00:24:33.245Z,4.09
2023-03-15T00:25:30.568Z,3.59
2023-03-15T00:26:28.234Z,3.84
2023-03-15T00:27:25.758Z,3.92
2023-03-15T00:28:23.050Z,4.29
2023-03-15T00:29:20.531Z,4.01
2023-03-15T00:30:17.884Z,3.76
2023-03-15T00:31:19.669Z,3.85
2023-03-15T00:32:17.115Z,4.07
2023-03-15T00:33:15.345Z,3.77
2023-03-15T00:34:13.953Z,3.67
2023-03-15T00:35:13.080Z,3.68
2023-03-15T00:36:11.231Z,3.61
2023-03-15T00:37:08.687Z,3.74
2023-03-15T00:39:31.158Z,3.79
2023-03-15T00:40:28.552Z,3.59
2023-03-15T00:41:25.926Z,3.72
2023-03-15T00:42:27.463Z,4.04
2023-03-15T00:43:24.801Z,3.95
2023-03-15T00:44:23.130Z,3.57
2023-03-15T00:45:21.883Z,3.69
2023-03-15T00:46:19.990Z,3.62
2023-03-15T00:47:17.348Z,3.65
2023-03-15T00:48:14.809Z,3.79
2023-03-15T00:49:12.202Z,3.47
2023-03-15T00:50:09.847Z,3.73
2023-03-15T00:51:09.984Z,3.97
2023-03-15T00:52:08.019Z,3.59
2023-03-15T00:53:05.342Z,3.63
2023-03-15T00:54:03.317Z,3.75
2023-03-15T00:55:00.618Z,3.77
2023-03-15T00:55:58.415Z,3.45
2023-03-15T00:56:55.730Z,3.55
2023-03-15T00:57:53.135Z,3.55
2023-03-15T00:58:53.010Z,3.69
2023-03-15T00:59:53.179Z,3.47
2023-03-15T01:00:51.850Z,3.75
2023-03-15T01:01:49.214Z,3.60
2023-03-15T01:02:47.451Z,3.61
2023-03-15T01:03:45.106Z,3.29
2023-03-15T01:04:42.591Z,3.35
2023-03-15T01:05:39.911Z,3.64
2023-03-15T01:06:38.221Z,3.64
2023-03-15T01:07:35.623Z,3.64
2023-03-15T01:08:32.995Z,3.74
2023-03-15T01:09:31.512Z,3.24
2023-03-15T01:10:29.410Z,3.90
2023-03-15T01:11:28.030Z,3.60
2023-03-15T01:12:25.762Z,3.67
2023-03-15T01:13:23.163Z,3.90
2023-03-15T01:14:20.439Z,3.57
2023-03-15T01:15:17.799Z,3.29
2023-03-15T01:16:15.435Z,3.43
2023-03-15T01:17:12.909Z,3.96
2023-03-15T01:18:10.364Z,3.91
2023-03-15T01:19:07.790Z,3.69
2023-03-15T01:20:06.131Z,3.70
2023-03-15T01:21:05.997Z,3.86
2023-03-15T01:22:03.360Z,3.69
2023-03-15T01:23:00.666Z,3.94
2023-03-15T01:23:57.966Z,3.77
2023-03-15T01:24:55.287Z,3.45
2023-03-15T01:25:52.605Z,3.70
2023-03-15T01:26:49.953Z,3.65
2023-03-15T01:27:47.376Z,3.50
2023-03-15T01:28:45.021Z,3.51
2023-03-15T01:29:42.684Z,3.53
2023-03-15T01:30:40.277Z,3.72
2023-03-15T01:31:40.183Z,3.52
2023-03-15T01:32:37.567Z,3.30
2023-03-15T01:33:34.996Z,3.17
2023-03-15T01:34:32.366Z,3.73
2023-03-15T01:35:29.731Z,3.58
2023-03-15T01:36:27.258Z,3.57
2023-03-15T01:37:24.840Z,3.34
2023-03-15T01:38:22.165Z,3.50
2023-03-15T01:39:19.542Z,3.57
2023-03-15T01:40:17.466Z,3.88
2023-03-15T01:41:15.948Z,3.56
2023-03-15T01:42:13.281Z,3.73
2023-03-15T01:43:21.381Z,3.33
2023-03-15T01:44:19.569Z,3.61
2023-03-15T01:45:35.298Z,3.62
2023-03-15T01:46:36.030Z,3.37
2023-03-15T01:47:33.398Z,3.47
2023-03-15T01:48:49.203Z,3.84
2023-03-15T01:49:50.476Z,3.73
2023-03-15T01:50:48.917Z,3.62
2023-03-15T01:51:50.172Z,3.67
2023-03-15T01:52:47.518Z,3.24
2023-03-15T01:53:49.192Z,3.14
2023-03-15T01:54:53.623Z,3.30
2023-03-15T01:55:53.192Z,3.15
2023-03-15T01:56:55.423Z,3.34
2023-03-15T01:57:59.493Z,3.16
2023-03-15T01:58:59.314Z,3.35
2023-03-15T02:00:03.839Z,3.52
2023-03-15T02:01:02.184Z,3.70
2023-03-15T02:02:00.935Z,3.16
2023-03-15T02:03:02.316Z,3.24
2023-03-15T02:04:04.129Z,3.15
2023-03-15T02:05:09.867Z,3.48
2023-03-15T02:06:10.248Z,3.39
2023-03-15T02:07:09.563Z,3.48
2023-03-15T02:08:08.880Z,3.56
2023-03-15T02:09:09.453Z,3.24
2023-03-15T02:10:10.764Z,3.28
2023-03-15T02:11:08.084Z,3.30
2023-03-15T02:12:05.609Z,3.40
2023-03-15T02:13:03.846Z,3.33
2023-03-15T02:14:03.453Z,3.16
2023-03-15T02:15:03.643Z,3.58
2023-03-15T02:16:01.918Z,3.26
2023-03-15T02:16:59.262Z,3.15
2023-03-15T02:17:56.707Z,3.54
2023-03-15T02:18:54.099Z,3.22
2023-03-15T02:20:06.886Z,3.28
2023-03-15T02:21:22.763Z,3.10
2023-03-15T02:22:41.552Z,3.45
2023-03-15T02:23:38.898Z,3.20
2023-03-15T02:24:44.029Z,3.41
2023-03-15T02:25:41.385Z,3.28
2023-03-15T02:26:49.188Z,3.56
2023-03-15T02:27:46.663Z,3.21
2023-03-15T02:28:44.946Z,3.42
2023-03-15T02:29:43.450Z,3.42
2023-03-15T02:30:41.650Z,3.56
2023-03-15T02:31:40.450Z,3.47
2023-03-15T02:32:38.064Z,3.89
2023-03-15T02:33:50.603Z,3.68
2023-03-15T02:34:48.011Z,3.33
2023-03-15T02:35:45.418Z,3.16
2023-03-15T02:36:42.838Z,3.53
2023-03-15T02:37:45.883Z,3.26
2023-03-15T02:38:43.298Z,3.63
2023-03-15T02:39:40.675Z,3.75
2023-03-15T02:40:38.107Z,3.75
2023-03-15T02:41:39.316Z,3.45
2023-03-15T02:42:36.818Z,3.32
2023-03-15T02:43:36.199Z,3.34
2023-03-15T02:44:35.992Z,3.69
2023-03-15T02:45:35.260Z,3.43
2023-03-15T02:46:32.788Z,3.41
2023-03-15T02:47:33.511Z,3.92
2023-03-15T02:48:34.167Z,3.18
2023-03-15T02:49:35.402Z,3.42
2023-03-15T02:50:33.267Z,3.51
2023-03-15T02:51:33.518Z,3.09
2023-03-15T02:52:30.896Z,3.15
2023-03-15T02:53:31.659Z,3.55
2023-03-15T02:54:29.000Z,3.10
2023-03-15T02:55:26.330Z,3.32
2023-03-15T02:56:24.620Z,3.41
2023-03-15T02:57:21.926Z,2.94
2023-03-15T02:58:19.226Z,3.04
2023-03-15T02:59:16.527Z,3.23
2023-03-15T03:00:14.526Z,3.50
2023-03-15T03:01:13.569Z,3.24
2023-03-15T03:02:12.141Z,3.16
2023-03-15T03:03:09.529Z,3.19
2023-03-15T03:04:06.818Z,3.36
2023-03-15T03:05:04.349Z,3.26
2023-03-15T03:06:01.668Z,3.58
2023-03-15T03:06:59.062Z,3.37
2023-03-15T03:07:56.453Z,3.46
2023-03-15T03:08:53.943Z,3.08
2023-03-15T03:09:51.374Z,3.39
2023-03-15T03:10:48.792Z,3.12
2023-03-15T03:11:46.135Z,3.24
2023-03-15T03:12:43.587Z,3.48
2023-03-15T03:13:41.418Z,3.09
2023-03-15T03:14:38.742Z,3.41
2023-03-15T03:15:36.115Z,3.35
2023-03-15T03:16:33.624Z,3.18
2023-03-15T03:17:31.016Z,3.17
2023-03-15T03:18:30.363Z,3.52
2023-03-15T03:19:27.751Z,3.59
2023-03-15T03:20:25.498Z,3.31
2023-03-15T03:21:22.968Z,3.51
2023-03-15T03:22:20.363Z,3.61
2023-03-15T03:23:17.816Z,3.54
2023-03-15T03:24:16.251Z,3.60
2023-03-15T03:25:13.708Z,3.39
2023-03-15T03:26:16.688Z,3.42
2023-03-15T03:27:17.589Z,3.31
2023-03-15T03:28:14.941Z,3.71
2023-03-15T03:29:12.366Z,3.74
2023-03-15T03:30:12.145Z,3.04
2023-03-15T03:31:15.597Z,3.47
2023-03-15T03:32:13.047Z,3.21
2023-03-15T03:33:10.823Z,3.25
2023-03-15T03:34:09.649Z,3.20
2023-03-15T03:35:07.880Z,3.49
2023-03-15T03:36:05.408Z,3.54
2023-03-15T03:37:03.279Z,3.62
2023-03-15T03:38:00.755Z,3.55
2023-03-15T03:38:58.136Z,3.55
2023-03-15T03:39:55.460Z,3.69
2023-03-15T03:40:52.782Z,3.40
2023-03-15T03:41:50.085Z,3.39
2023-03-15T03:42:47.515Z,3.30
2023-03-15T03:43:44.845Z,3.34
2023-03-15T03:44:42.217Z,3.29
2023-03-15T03:45:39.557Z,3.56
2023-03-15T03:46:36.920Z,3.33
2023-03-15T03:47:34.298Z,3.17
2023-03-15T03:48:31.656Z,3.55
2023-03-15T03:49:29.038Z,3.22
2023-03-15T03:50:26.773Z,3.46
2023-03-15T03:51:24.061Z,3.32
2023-03-15T03:52:21.384Z,3.09
2023-03-15T03:53:18.703Z,3.21
2023-03-15T03:54:17.650Z,3.47
2023-03-15T03:55:15.227Z,3.29
2023-03-15T03:56:12.655Z,3.21
2023-03-15T03:57:10.849Z,3.35
2023-03-15T03:58:08.808Z,3.30
2023-03-15T03:59:06.190Z,3.07
2023-03-15T04:00:04.581Z,3.26
2023-03-15T04:01:02.016Z,3.39
2023-03-15T04:01:59.365Z,3.44
2023-03-15T04:02:56.713Z,3.31
2023-03-15T04:03:54.090Z,3.17
2023-03-15T04:04:51.517Z,3.21
2023-03-15T04:05:48.921Z,3.18
2023-03-15T04:06:46.321Z,3.19
2023-03-15T04:07:43.640Z,3.19
2023-03-15T04:08:41.653Z,3.29
2023-03-15T04:09:38.977Z,3.03
2023-03-15T04:10:36.326Z,3.20
2023-03-15T04:11:36.357Z,3.65
2023-03-15T04:12:33.811Z,3.21
2023-03-15T04:13:31.430Z,3.26
2023-03-15T04:14:28.736Z,3.20
2023-03-15T04:15:26.177Z,3.36
2023-03-15T04:16:24.829Z,3.31
2023-03-15T04:17:22.266Z,3.28
2023-03-15T04:18:19.592Z,3.55
2023-03-15T04:19:16.864Z,3.33
2023-03-15T04:20:15.578Z,3.36
2023-03-15T04:21:13.048Z,3.40
2023-03-15T04:22:10.444Z,3.52
2023-03-15T04:23:07.788Z,3.24
2023-03-15T04:24:05.232Z,3.28
2023-03-15T04:25:02.633Z,3.42
2023-03-15T04:25:59.966Z,3.86
2023-03-15T04:26:58.005Z,3.48
2023-03-15T04:28:03.036Z,3.53
2023-03-15T04:29:00.415Z,3.39
2023-03-15T04:29:57.773Z,3.22
2023-03-15T04:30:58.918Z,3.49
2023-03-15T04:32:01.573Z,3.63
2023-03-15T04:32:59.217Z,3.13
2023-03-15T04:33:56.777Z,3.23
2023-03-15T04:34:55.960Z,3.43
2023-03-15T04:35:54.126Z,3.49
2023-03-15T04:36:54.697Z,3.83
2023-03-15T04:37:52.060Z,3.57
2023-03-15T04:38:50.127Z,3.44
2023-03-15T04:39:47.491Z,3.55
2023-03-15T04:40:45.348Z,3.11
2023-03-15T04:41:42.868Z,3.64
2023-03-15T04:42:40.326Z,3.75
2023-03-15T04:43:37.674Z,3.60
2023-03-15T04:44:35.089Z,3.39
2023-03-15T04:45:33.037Z,3.50
2023-03-15T04:46:34.043Z,3.65
2023-03-15T04:47:31.432Z,3.07
2023-03-15T04:48:28.761Z,3.75
2023-03-15T04:49:26.095Z,3.41
2023-03-15T04:50:24.056Z,3.28
2023-03-15T04:51:21.369Z,3.39
2023-03-15T04:52:18.690Z,3.78
2023-03-15T04:53:16.060Z,3.32
2023-03-15T04:54:13.438Z,3.46
2023-03-15T04:55:10.942Z,3.50
2023-03-15T04:56:08.283Z,3.28
2023-03-15T04:57:05.706Z,3.62
2023-03-15T04:58:03.262Z,3.51
2023-03-15T04:59:00.726Z,3.58
2023-03-15T04:59:58.101Z,3.93
2023-03-15T05:00:55.498Z,3.57
2023-03-15T05:01:52.877Z,3.49
2023-03-15T05:02:55.032Z,3.51
2023-03-15T05:03:53.676Z,3.57
2023-03-15T05:04:51.033Z,3.94
2023-03-15T05:05:48.478Z,3.67
2023-03-15T05:06:45.830Z,3.33
2023-03-15T05:07:43.196Z,3.24
2023-03-15T05:08:40.584Z,3.47
2023-03-15T05:09:39.779Z,3.40
2023-03-15T05:10:37.476Z,3.65
2023-03-15T05:11:34.892Z,3.64
2023-03-15T05:12:32.362Z,3.89
2023-03-15T05:13:29.795Z,3.71
2023-03-15T05:14:27.245Z,3.71
2023-03-15T05:15:24.614Z,3.47
2023-03-15T05:16:22.063Z,3.38
2023-03-15T05:17:19.671Z,3.18
2023-03-15T05:18:17.058Z,3.51
2023-03-15T05:19:14.421Z,3.49
2023-03-15T05:20:12.926Z,3.62
2023-03-15T05:21:10.217Z,3.56
2023-03-15T05:22:07.626Z,3.66
2023-03-15T05:23:05.021Z,3.17
2023-03-15T05:24:02.472Z,3.31
2023-03-15T05:24:59.792Z,3.30
2023-03-15T05:25:57.136Z,3.69
2023-03-15T05:26:54.461Z,3.45
2023-03-15T05:27:52.963Z,3.83
2023-03-15T05:28:52.368Z,3.34
2023-03-15T05:29:51.095Z,3.58
2023-03-15T05:30:48.485Z,3.30
2023-03-15T05:31:45.834Z,3.45
2023-03-15T05:32:44.779Z,3.68
2023-03-15T05:33:47.026Z,3.28
2023-03-15T05:34:44.455Z,3.60
2023-03-15T05:35:42.755Z,2.82
2023-03-15T05:36:40.192Z,3.37
2023-03-15T05:37:37.598Z,3.25
2023-03-15T05:38:35.067Z,3.51
2023-03-15T05:39:34.742Z,3.58
2023-03-15T05:40:33.089Z,3.48
2023-03-15T05:41:30.821Z,3.57
2023-03-15T05:42:29.320Z,3.69
2023-03-15T05:43:26.685Z,3.90
2023-03-15T05:44:24.145Z,3.43
2023-03-15T05:45:21.463Z,3.88
2023-03-15T05:46:18.998Z,3.59
2023-03-15T05:47:16.512Z,4.11
2023-03-15T05:48:14.158Z,3.96
2023-03-15T05:49:11.449Z,3.86
2023-03-15T05:50:09.121Z,4.07
2023-03-15T05:51:06.540Z,3.91
2023-03-15T05:52:03.970Z,4.03
2023-03-15T05:53:01.283Z,4.18
2023-03-15T05:53:58.545Z,4.57
2023-03-15T05:54:55.971Z,4.30
2023-03-15T05:55:53.384Z,3.95
2023-03-15T05:56:50.916Z,4.30
2023-03-15T05:57:48.270Z,4.78
2023-03-15T05:58:45.652Z,4.07
2023-03-15T05:59:43.007Z,4.06
2023-03-15T06:00:40.347Z,3.92
2023-03-15T06:01:37.879Z,3.44
2023-03-15T06:02:35.340Z,3.60
2023-03-15T06:03:32.688Z,3.89
2023-03-15T06:04:30.086Z,3.83
2023-03-15T06:05:27.567Z,3.88
2023-03-15T06:06:24.896Z,3.64
2023-03-15T06:07:22.233Z,3.83
2023-03-15T06:08:19.586Z,3.58
2023-03-15T06:09:16.916Z,3.94
2023-03-15T06:10:14.285Z,3.51
2023-03-15T06:11:11.673Z,3.83
2023-03-15T06:12:09.219Z,4.10
2023-03-15T06:13:07.049Z,3.73
2023-03-15T06:14:04.623Z,4.14
2023-03-15T06:15:01.916Z,4.18
2023-03-15T06:15:59.287Z,3.87
2023-03-15T06:16:56.807Z,3.97
2023-03-15T06:17:54.116Z,4.27
2023-03-15T06:18:51.541Z,4.02
2023-03-15T06:19:48.991Z,3.83
2023-03-15T06:20:46.367Z,4.07
2023-03-15T06:21:44.008Z,4.18
2023-03-15T06:22:41.380Z,4.05
2023-03-15T06:23:38.790Z,4.14
2023-03-15T06:24:36.170Z,3.88
2023-03-15T06:25:33.539Z,3.67
2023-03-15T06:26:30.846Z,4.02
2023-03-15T06:27:28.294Z,4.44
2023-03-15T06:28:25.680Z,4.15
2023-03-15T06:29:23.364Z,4.26
2023-03-15T06:30:20.691Z,4.00
2023-03-15T06:31:18.091Z,4.09
2023-03-15T06:32:15.446Z,3.70
2023-03-15T06:33:12.858Z,4.07
2023-03-15T06:34:10.187Z,4.33
2023-03-15T06:35:07.686Z,3.88
2023-03-15T06:36:05.569Z,4.37
2023-03-15T06:37:03.313Z,4.17
2023-03-15T06:38:01.210Z,4.02
2023-03-15T06:38:58.766Z,4.15
2023-03-15T06:39:56.114Z,4.17
2023-03-15T06:40:53.511Z,4.59
2023-03-15T06:41:53.472Z,4.76
2023-03-15T06:42:50.946Z,3.98
2023-03-15T06:43:48.309Z,4.17
2023-03-15T06:44:45.823Z,3.83
2023-03-15T06:45:43.267Z,3.97
2023-03-15T06:46:40.781Z,3.92
2023-03-15T06:47:38.508Z,3.70
2023-03-15T06:48:35.928Z,4.14
2023-03-15T06:49:33.504Z,3.94
2023-03-15T06:50:44.246Z,4.15
2023-03-15T06:51:45.179Z,3.83
2023-03-15T06:52:42.921Z,4.27
2023-03-15T06:53:40.196Z,4.09
2023-03-15T06:54:38.276Z,4.09
2023-03-15T06:55:35.665Z,4.33
2023-03-15T06:56:37.212Z,4.25
2023-03-15T06:57:34.605Z,4.33
2023-03-15T06:58:32.004Z,4.36
2023-03-15T06:59:29.354Z,3.91
2023-03-15T07:00:26.772Z,4.21
2023-03-15T07:01:24.183Z,4.08
2023-03-15T07:02:21.939Z,3.90
2023-03-15T07:03:21.436Z,4.04
2023-03-15T07:04:18.941Z,4.02
2023-03-15T07:05:16.384Z,3.92
2023-03-15T07:06:13.711Z,4.80
2023-03-15T07:07:11.624Z,4.33
2023-03-15T07:08:08.990Z,4.28
2023-03-15T07:09:06.420Z,4.15
2023-03-15T07:10:03.812Z,4.47
2023-03-15T07:11:03.091Z,4.01
2023-03-15T07:12:00.560Z,4.50
2023-03-15T07:12:57.940Z,4.21
2023-03-15T07:13:55.270Z,4.14
2023-03-15T07:14:52.774Z,3.99
2023-03-15T07:15:53.322Z,3.87
2023-03-15T07:16:50.811Z,4.48
2023-03-15T07:17:48.250Z,3.89
2023-03-15T07:18:45.644Z,4.26
2023-03-15T07:19:55.520Z,4.38
2023-03-15T07:20:57.754Z,4.12
2023-03-15T07:21:55.104Z,4.20
2023-03-15T07:22:52.399Z,4.03
2023-03-15T07:23:49.745Z,4.03
2023-03-15T07:24:47.068Z,3.92
2023-03-15T07:25:54.434Z,3.95
2023-03-15T07:26:56.329Z,3.76
2023-03-15T07:27:54.001Z,4.22
2023-03-15T07:28:51.372Z,3.80
2023-03-15T07:29:48.787Z,3.97
2023-03-15T07:30:53.174Z,4.18
2023-03-15T07:31:51.024Z,3.95
2023-03-15T07:32:48.470Z,3.70
2023-03-15T07:33:45.988Z,4.01
2023-03-15T07:34:43.387Z,4.11
2023-03-15T07:35:40.846Z,4.06
2023-03-15T07:36:38.195Z,4.09
2023-03-15T07:37:35.589Z,4.06
2023-03-15T07:38:34.058Z,3.97
2023-03-15T07:39:32.643Z,4.08
2023-03-15T07:40:30.080Z,3.94
2023-03-15T07:41:27.448Z,3.97
2023-03-15T07:42:24.968Z,4.33
2023-03-15T07:43:22.510Z,3.82
2023-03-15T07:44:19.852Z,4.12
2023-03-15T07:45:17.363Z,3.93
2023-03-15T07:46:14.735Z,3.47
2023-03-15T07:47:12.178Z,3.76
2023-03-15T07:48:09.517Z,3.79
2023-03-15T07:49:06.940Z,4.17
2023-03-15T07:50:05.505Z,3.96
2023-03-15T07:51:02.826Z,3.65
2023-03-15T07:52:00.351Z,3.57
2023-03-15T07:52:57.903Z,4.02
2023-03-15T07:53:55.254Z,3.90
2023-03-15T07:54:52.624Z,3.72
2023-03-15T07:55:49.926Z,3.98
2023-03-15T07:56:47.295Z,3.96
2023-03-15T07:57:44.615Z,4.05
2023-03-15T07:58:41.938Z,4.14
2023-03-15T07:59:39.298Z,4.19
2023-03-15T08:00:36.660Z,3.96
2023-03-15T08:01:34.325Z,3.94
2023-03-15T08:02:31.692Z,4.25
2023-03-15T08:03:29.097Z,4.08
2023-03-15T08:04:26.506Z,4.18
2023-03-15T08:05:25.375Z,4.16
2023-03-15T08:06:24.323Z,3.75
2023-03-15T08:07:21.636Z,3.97
2023-03-15T08:08:19.047Z,4.01
2023-03-15T08:09:16.394Z,4.45
2023-03-15T08:10:14.783Z,3.92
2023-03-15T08:11:12.515Z,4.04
2023-03-15T08:12:09.905Z,3.81
2023-03-15T08:13:07.242Z,4.07
2023-03-15T08:14:04.563Z,4.11
2023-03-15T08:15:01.983Z,3.84
2023-03-15T08:15:59.647Z,4.15
2023-03-15T08:16:57.084Z,4.14
2023-03-15T08:17:54.442Z,4.33
2023-03-15T08:18:51.803Z,3.83
2023-03-15T08:19:49.147Z,4.35
2023-03-15T08:20:46.730Z,3.94
2023-03-15T08:21:45.375Z,3.87
2023-03-15T08:22:44.744Z,3.87
2023-03-15T08:23:42.087Z,4.07
2023-03-15T08:24:39.537Z,4.13
2023-03-15T08:25:40.849Z,4.15
2023-03-15T08:26:38.404Z,3.69
2023-03-15T08:27:35.793Z,3.67
2023-03-15T08:28:33.104Z,3.87
2023-03-15T08:29:31.180Z,3.86
2023-03-15T08:30:28.512Z,4.12
2023-03-15T08:31:25.964Z,4.10
2023-03-15T08:32:23.491Z,4.27
2023-03-15T08:33:22.376Z,4.36
2023-03-15T08:34:19.955Z,4.25
2023-03-15T08:35:17.617Z,4.63
2023-03-15T08:36:15.017Z,4.07
2023-03-15T08:37:12.863Z,3.63
2023-03-15T08:38:10.234Z,4.63
2023-03-15T08:39:08.454Z,3.87
2023-03-15T08:40:09.532Z,3.77
2023-03-15T08:41:06.940Z,3.73
2023-03-15T08:42:04.396Z,3.84
2023-03-15T08:43:01.807Z,3.90
2023-03-15T08:43:59.267Z,3.78
2023-03-15T08:44:59.556Z,4.12
2023-03-15T08:46:01.199Z,4.31
2023-03-15T08:46:59.352Z,3.94
2023-03-15T08:47:58.038Z,4.14
2023-03-15T08:48:55.453Z,3.85
2023-03-15T08:49:53.262Z,4.14
2023-03-15T08:50:50.747Z,4.27
2023-03-15T08:51:48.097Z,3.86
2023-03-15T08:52:45.665Z,4.51
2023-03-15T08:53:43.206Z,4.51
2023-03-15T08:54:40.591Z,4.34
2023-03-15T08:55:38.653Z,4.18
2023-03-15T08:56:36.388Z,4.30
2023-03-15T08:57:34.323Z,4.12
2023-03-15T08:58:31.699Z,3.90
2023-03-15T08:59:32.171Z,3.85
2023-03-15T09:00:30.849Z,4.43
2023-03-15T09:01:30.302Z,4.16
2023-03-15T09:02:28.299Z,3.99
2023-03-15T09:03:25.762Z,4.41
2023-03-15T09:04:23.107Z,4.40
2023-03-15T09:05:21.738Z,4.40
2023-03-15T09:06:19.175Z,4.65
2023-03-15T09:07:16.575Z,3.70
2023-03-15T09:08:14.292Z,4.35
2023-03-15T09:09:11.711Z,4.41
2023-03-15T09:10:09.851Z,4.46
2023-03-15T09:11:07.604Z,4.50
2023-03-15T09:12:05.038Z,4.57
2023-03-15T09:13:02.563Z,4.67
2023-03-15T09:13:59.946Z,4.96
2023-03-15T09:14:57.211Z,4.80
2023-03-15T09:15:55.548Z,4.43
2023-03-15T09:16:52.933Z,4.72
2023-03-15T09:17:51.737Z,4.35
2023-03-15T09:18:49.192Z,4.76
2023-03-15T09:19:46.544Z,4.30
2023-03-15T09:20:44.019Z,4.59
2023-03-15T09:21:42.905Z,3.99
2023-03-15T09:22:50.024Z,4.11
2023-03-15T09:23:47.835Z,4.74
2023-03-15T09:24:45.166Z,4.77
2023-03-15T09:25:42.536Z,4.78
2023-03-15T09:26:39.985Z,4.75
2023-03-15T09:27:38.301Z,5.31
2023-03-15T09:28:35.658Z,4.42
2023-03-15T09:29:33.060Z,4.42
2023-03-15T09:30:30.424Z,4.51
2023-03-15T09:31:27.737Z,4.38
2023-03-15T09:32:25.112Z,4.67
2023-03-15T09:33:22.587Z,4.86
2023-03-15T09:34:21.785Z,4.87
2023-03-15T09:35:20.423Z,5.03
2023-03-15T09:36:17.742Z,4.84
2023-03-15T09:37:15.318Z,4.58
2023-03-15T09:38:12.622Z,5.08
2023-03-15T09:39:09.894Z,4.74
2023-03-15T09:40:08.240Z,4.90
2023-03-15T09:41:06.354Z,4.59
2023-03-15T09:42:08.753Z,5.09
2023-03-15T09:43:06.092Z,4.91
2023-03-15T09:44:12.292Z,5.17
2023-03-15T09:45:27.249Z,5.91
2023-03-15T09:46:25.303Z,5.54
2023-03-15T09:47:31.517Z,5.28
2023-03-15T09:48:44.310Z,5.60
2023-03-15T09:49:48.037Z,5.64
2023-03-15T09:50:45.405Z,5.34
2023-03-15T09:51:53.999Z,5.19
2023-03-15T09:52:56.393Z,6.43
2023-03-15T09:54:05.869Z,5.52
2023-03-15T09:55:11.246Z,5.28
2023-03-15T09:56:35.760Z,4.92
2023-03-15T09:57:45.386Z,5.53
2023-03-15T09:58:44.438Z,4.72
2023-03-15T09:59:46.417Z,4.76
2023-03-15T10:00:45.515Z,4.80
2023-03-15T10:01:43.857Z,4.85
2023-03-15T10:02:49.392Z,5.01
2023-03-15T10:03:46.797Z,5.10
2023-03-15T10:04:46.100Z,5.22
2023-03-15T10:05:52.300Z,5.35
2023-03-15T10:06:54.243Z,5.73
2023-03-15T10:07:52.315Z,5.15
2023-03-15T10:08:54.767Z,5.28
2023-03-15T10:09:52.434Z,5.08
2023-03-15T10:10:52.932Z,5.11
2023-03-15T10:12:04.405Z,5.05
2023-03-15T10:13:07.638Z,5.02
2023-03-15T10:14:07.927Z,5.25
2023-03-15T10:15:05.236Z,5.22
2023-03-15T10:16:11.214Z,4.95
2023-03-15T10:17:13.098Z,5.14
2023-03-15T10:18:10.489Z,5.07
2023-03-15T10:19:13.925Z,5.26
2023-03-15T10:20:19.195Z,4.84
2023-03-15T10:21:26.478Z,4.94
2023-03-15T10:22:36.815Z,5.15
2023-03-15T10:23:47.437Z,5.10
2023-03-15T10:24:59.468Z,5.16
2023-03-15T10:25:57.583Z,4.66
2023-03-15T10:26:59.031Z,4.79
2023-03-15T10:27:56.405Z,4.99
2023-03-15T10:28:53.747Z,5.20
2023-03-15T10:29:53.085Z,5.17
2023-03-15T10:30:51.665Z,4.96
2023-03-15T10:31:50.056Z,5.33
2023-03-15T10:32:56.641Z,5.45
2023-03-15T10:33:55.605Z,4.91
2023-03-15T10:34:55.897Z,5.48
2023-03-15T10:36:01.203Z,5.22
2023-03-15T10:37:06.330Z,5.33
2023-03-15T10:38:03.651Z,5.13
2023-03-15T10:39:01.027Z,5.28
2023-03-15T10:39:59.191Z,5.14
2023-03-15T10:40:58.149Z,5.12
2023-03-15T10:41:55.514Z,5.46
2023-03-15T10:42:54.155Z,5.51
2023-03-15T10:44:03.544Z,5.17
2023-03-15T10:45:12.170Z,5.78
2023-03-15T10:46:11.740Z,5.56
2023-03-15T10:47:23.006Z,5.35
2023-03-15T10:48:21.171Z,5.26
2023-03-15T10:49:18.478Z,5.38
2023-03-15T10:50:31.063Z,5.06
2023-03-15T10:51:31.430Z,5.30
2023-03-15T10:52:31.844Z,5.66
2023-03-15T10:53:29.305Z,5.94
2023-03-15T10:54:26.904Z,5.69
2023-03-15T10:55:33.210Z,5.62
2023-03-15T10:56:34.940Z,5.28
2023-03-15T10:57:35.333Z,5.98
2023-03-15T10:59:12.382Z,5.85
2023-03-15T11:00:23.928Z,5.85
2023-03-15T11:01:25.869Z,6.08
2023-03-15T11:02:24.378Z,5.65
2023-03-15T11:03:23.605Z,6.09
2023-03-15T11:04:27.437Z,6.18
2023-03-15T11:05:30.200Z,5.99
2023-03-15T11:06:28.986Z,6.41
2023-03-15T11:07:26.341Z,5.89
2023-03-15T11:08:38.087Z,5.80
2023-03-15T11:09:40.912Z,5.77
2023-03-15T11:10:38.420Z,4.97
2023-03-15T11:11:53.870Z,5.46
2023-03-15T11:12:51.280Z,5.74
2023-03-15T11:14:01.600Z,5.95
2023-03-15T11:15:01.801Z,6.03
2023-03-15T11:16:04.530Z,5.79
2023-03-15T11:17:04.044Z,5.87
2023-03-15T11:18:01.456Z,6.56
2023-03-15T11:19:03.709Z,6.59
2023-03-15T11:20:20.239Z,6.07
2023-03-15T11:21:19.869Z,6.56
2023-03-15T11:22:17.249Z,6.23
2023-03-15T11:23:18.425Z,6.30
2023-03-15T11:24:23.142Z,6.50
2023-03-15T11:25:21.933Z,6.24
2023-03-15T11:26:32.980Z,6.33
2023-03-15T11:27:31.950Z,6.59
2023-03-15T11:28:31.658Z,6.35
2023-03-15T11:29:34.277Z,6.38
2023-03-15T11:30:31.762Z,6.64
2023-03-15T11:31:31.303Z,7.22
2023-03-15T11:32:31.542Z,7.77
2023-03-15T11:33:58.120Z,7.73
2023-03-15T11:35:27.814Z,8.25
2023-03-15T11:36:29.052Z,7.60
2023-03-15T11:37:49.504Z,7.57
2023-03-15T11:38:48.354Z,7.76
2023-03-15T11:39:58.752Z,6.87
2023-03-15T11:41:00.425Z,6.27
2023-03-15T11:42:02.832Z,6.56
2023-03-15T11:43:02.862Z,6.23
2023-03-15T11:44:00.192Z,6.50
2023-03-15T11:45:02.509Z,6.60
2023-03-15T11:46:04.880Z,6.93
2023-03-15T11:47:11.326Z,7.15
2023-03-15T11:48:17.816Z,6.63
2023-03-15T11:49:21.662Z,7.17
2023-03-15T11:50:19.304Z,6.62
2023-03-15T11:51:17.274Z,7.05
2023-03-15T11:52:16.536Z,7.29
2023-03-15T11:53:17.124Z,6.86
2023-03-15T11:54:16.111Z,7.82
2023-03-15T11:55:27.229Z,7.36
2023-03-15T11:56:26.316Z,6.82
2023-03-15T11:57:29.771Z,7.47
2023-03-15T11:58:32.948Z,7.55
2023-03-15T11:59:32.870Z,7.56
2023-03-15T12:00:34.541Z,7.42
2023-03-15T12:01:34.304Z,6.89
2023-03-15T12:02:36.886Z,7.00
2023-03-15T12:03:37.382Z,7.27
2023-03-15T12:04:34.749Z,7.10
2023-03-15T12:05:42.066Z,7.42
2023-03-15T12:06:39.505Z,7.44
2023-03-15T12:07:38.581Z,7.10
2023-03-15T12:08:53.428Z,6.92
2023-03-15T12:09:52.688Z,7.66
2023-03-15T12:10:50.776Z,7.09
2023-03-15T12:11:48.140Z,7.30
2023-03-15T12:12:46.136Z,7.38
2023-03-15T12:13:58.555Z,6.90
2023-03-15T12:15:13.968Z,6.99
2023-03-15T12:16:12.205Z,7.05
2023-03-15T12:17:24.716Z,6.78
2023-03-15T12:18:32.972Z,6.40
2023-03-15T12:19:33.757Z,5.51
2023-03-15T12:20:31.132Z,5.06
2023-03-15T12:21:38.686Z,4.73
2023-03-15T12:22:38.291Z,4.79
2023-03-15T12:23:41.352Z,4.88
2023-03-15T12:24:39.857Z,4.81
2023-03-15T12:25:54.077Z,4.68
2023-03-15T12:27:03.311Z,4.78
2023-03-15T12:28:05.750Z,5.28
2023-03-15T12:29:11.184Z,5.16
2023-03-15T12:30:19.382Z,5.15
2023-03-15T12:31:17.424Z,5.31
2023-03-15T12:32:17.180Z,4.96
2023-03-15T12:33:17.196Z,5.05
2023-03-15T12:34:23.846Z,4.90
2023-03-15T12:35:23.200Z,5.09
2023-03-15T12:36:36.969Z,5.34
2023-03-15T12:37:52.352Z,5.07
2023-03-15T12:39:00.777Z,5.24
2023-03-15T12:40:26.233Z,5.39
2023-03-15T12:41:35.519Z,5.36
2023-03-15T12:42:32.972Z,5.30
2023-03-15T12:43:46.341Z,5.12
2023-03-15T12:44:43.862Z,5.00
2023-03-15T12:45:43.693Z,5.08
2023-03-15T12:46:43.736Z,4.80
2023-03-15T12:47:49.976Z,4.36
2023-03-15T12:49:05.927Z,4.73
2023-03-15T12:50:23.212Z,3.69
2023-03-15T12:51:40.590Z,3.82
2023-03-15T12:52:42.046Z,4.13
2023-03-15T12:53:45.872Z,4.08
2023-03-15T12:54:46.948Z,4.28
2023-03-15T12:55:44.396Z,4.08
2023-03-15T12:56:45.892Z,4.06
2023-03-15T12:57:53.987Z,3.94
2023-03-15T12:58:54.720Z,3.95
2023-03-15T12:59:58.127Z,4.43
2023-03-15T13:00:55.633Z,4.19
2023-03-15T13:01:53.223Z,4.23
2023-03-15T13:02:54.051Z,4.29
2023-03-15T13:03:56.543Z,4.41
2023-03-15T13:05:13.833Z,4.57
2023-03-15T13:06:26.189Z,4.50
2023-03-15T13:07:33.150Z,4.00
2023-03-15T13:08:44.023Z,4.08
2023-03-15T13:10:04.887Z,4.43
2023-03-15T13:11:05.302Z,4.10
2023-03-15T13:12:15.338Z,4.00
2023-03-15T13:13:18.644Z,4.10
2023-03-15T13:14:34.496Z,4.51
2023-03-15T13:15:39.673Z,4.16
2023-03-15T13:16:38.036Z,4.40